sensor_id;sensor_type;location;lat;lon;timestamp;P1;durP1;ratioP1;P2;durP2;ratioP2
30303;SDS011;17112;48.636;10.152;2024-03-25T00:01:32;2.90;;;1.60;;
30303;SDS011;17112;48.636;10.152;2024-03-25T00:03:58;6.45;;;1.45;;
30303;SDS011;17112;48.636;10.152;2024-03-25T00:06:24;5.15;;;1.67;;
30303;SDS011;17112;48.636;10.152;2024-03-25T00:08:49;4.78;;;1.88;;
30303;SDS011;17112;48.636;10.152;2024-03-25T00:11:15;3.88;;;1.63;;
30303;SDS011;17112;48.636;10.152;2024-03-25T00:13:41;1.60;;;1.27;;
30303;SDS011;17112;48.636;10.152;2024-03-25T00:16:06;2.13;;;1.42;;
30303;SDS011;17112;48.636;10.152;2024-03-25T00:18:33;2.88;;;1.42;;
30303;SDS011;17112;48.636;10.152;2024-03-25T00:20:58;2.03;;;1.35;;
30303;SDS011;17112;48.636;10.152;2024-03-25T00:23:24;4.15;;;1.60;;
30303;SDS011;17112;48.636;10.152;2024-03-25T00:25:50;2.90;;;1.52;;
30303;SDS011;17112;48.636;10.152;2024-03-25T00:28:16;3.90;;;1.55;;
30303;SDS011;17112;48.636;10.152;2024-03-25T00:30:44;4.60;;;1.90;;
30303;SDS011;17112;48.636;10.152;2024-03-25T00:33:10;4.07;;;2.00;;
30303;SDS011;17112;48.636;10.152;2024-03-25T00:35:36;3.53;;;1.77;;
30303;SDS011;17112;48.636;10.152;2024-03-25T00:38:02;2.35;;;1.60;;
30303;SDS011;17112;48.636;10.152;2024-03-25T00:40:27;2.90;;;1.65;;
30303;SDS011;17112;48.636;10.152;2024-03-25T00:42:53;3.03;;;1.65;;
30303;SDS011;17112;48.636;10.152;2024-03-25T00:45:19;2.85;;;1.40;;
30303;SDS011;17112;48.636;10.152;2024-03-25T00:47:45;3.08;;;1.40;;
30303;SDS011;17112;48.636;10.152;2024-03-25T00:50:11;6.70;;;1.83;;
30303;SDS011;17112;48.636;10.152;2024-03-25T00:52:36;4.05;;;1.83;;
30303;SDS011;17112;48.636;10.152;2024-03-25T00:55:02;2.05;;;1.70;;
30303;SDS011;17112;48.636;10.152;2024-03-25T00:57:28;3.90;;;1.50;;
30303;SDS011;17112;48.636;10.152;2024-03-25T00:59:54;2.25;;;1.33;;
30303;SDS011;17112;48.636;10.152;2024-03-25T01:02:20;3.85;;;1.70;;
30303;SDS011;17112;48.636;10.152;2024-03-25T01:04:46;2.85;;;1.48;;
30303;SDS011;17112;48.636;10.152;2024-03-25T01:07:12;2.55;;;1.88;;
30303;SDS011;17112;48.636;10.152;2024-03-25T01:09:37;4.05;;;1.83;;
30303;SDS011;17112;48.636;10.152;2024-03-25T01:12:03;3.50;;;1.55;;
30303;SDS011;17112;48.636;10.152;2024-03-25T01:14:29;7.53;;;1.77;;
30303;SDS011;17112;48.636;10.152;2024-03-25T01:16:55;4.85;;;1.65;;
30303;SDS011;17112;48.636;10.152;2024-03-25T01:19:21;3.38;;;1.83;;
30303;SDS011;17112;48.636;10.152;2024-03-25T01:21:47;4.97;;;1.55;;
30303;SDS011;17112;48.636;10.152;2024-03-25T01:24:14;3.80;;;1.60;;
30303;SDS011;17112;48.636;10.152;2024-03-25T01:26:40;3.38;;;1.40;;
30303;SDS011;17112;48.636;10.152;2024-03-25T01:29:06;3.58;;;1.88;;
30303;SDS011;17112;48.636;10.152;2024-03-25T01:31:32;3.92;;;1.50;;
30303;SDS011;17112;48.636;10.152;2024-03-25T01:33:59;2.90;;;1.70;;
30303;SDS011;17112;48.636;10.152;2024-03-25T01:36:25;5.70;;;1.98;;
30303;SDS011;17112;48.636;10.152;2024-03-25T01:38:52;2.55;;;1.70;;
30303;SDS011;17112;48.636;10.152;2024-03-25T01:41:20;2.90;;;1.75;;
30303;SDS011;17112;48.636;10.152;2024-03-25T01:43:49;2.55;;;1.55;;
30303;SDS011;17112;48.636;10.152;2024-03-25T01:46:16;5.60;;;1.80;;
30303;SDS011;17112;48.636;10.152;2024-03-25T01:48:44;3.63;;;1.67;;
30303;SDS011;17112;48.636;10.152;2024-03-25T01:51:14;2.92;;;1.63;;
30303;SDS011;17112;48.636;10.152;2024-03-25T01:53:42;4.55;;;1.73;;
30303;SDS011;17112;48.636;10.152;2024-03-25T01:56:08;3.65;;;1.60;;
30303;SDS011;17112;48.636;10.152;2024-03-25T01:58:35;5.05;;;1.63;;
30303;SDS011;17112;48.636;10.152;2024-03-25T02:01:02;4.82;;;1.92;;
30303;SDS011;17112;48.636;10.152;2024-03-25T02:03:28;5.07;;;2.13;;
30303;SDS011;17112;48.636;10.152;2024-03-25T02:05:55;4.32;;;1.85;;
30303;SDS011;17112;48.636;10.152;2024-03-25T02:08:25;4.13;;;1.90;;
30303;SDS011;17112;48.636;10.152;2024-03-25T02:10:52;4.82;;;1.55;;
30303;SDS011;17112;48.636;10.152;2024-03-25T02:13:21;3.35;;;1.52;;
30303;SDS011;17112;48.636;10.152;2024-03-25T02:15:47;3.20;;;1.63;;
30303;SDS011;17112;48.636;10.152;2024-03-25T02:18:16;3.92;;;2.03;;
30303;SDS011;17112;48.636;10.152;2024-03-25T02:20:42;3.15;;;2.05;;
30303;SDS011;17112;48.636;10.152;2024-03-25T02:23:08;5.25;;;1.90;;
30303;SDS011;17112;48.636;10.152;2024-03-25T02:25:35;4.57;;;1.85;;
30303;SDS011;17112;48.636;10.152;2024-03-25T02:28:03;4.85;;;1.80;;
30303;SDS011;17112;48.636;10.152;2024-03-25T02:30:29;5.93;;;2.22;;
30303;SDS011;17112;48.636;10.152;2024-03-25T02:32:55;7.25;;;1.95;;
30303;SDS011;17112;48.636;10.152;2024-03-25T02:35:21;4.53;;;1.83;;
30303;SDS011;17112;48.636;10.152;2024-03-25T02:37:49;5.43;;;1.88;;
30303;SDS011;17112;48.636;10.152;2024-03-25T02:40:16;2.17;;;1.90;;
30303;SDS011;17112;48.636;10.152;2024-03-25T02:42:43;4.57;;;2.05;;
30303;SDS011;17112;48.636;10.152;2024-03-25T02:45:09;3.50;;;1.70;;
30303;SDS011;17112;48.636;10.152;2024-03-25T02:47:35;6.75;;;1.70;;
30303;SDS011;17112;48.636;10.152;2024-03-25T02:50:01;4.40;;;1.85;;
30303;SDS011;17112;48.636;10.152;2024-03-25T02:52:27;6.28;;;2.00;;
30303;SDS011;17112;48.636;10.152;2024-03-25T02:54:53;6.22;;;2.13;;
30303;SDS011;17112;48.636;10.152;2024-03-25T02:57:21;4.68;;;2.10;;
30303;SDS011;17112;48.636;10.152;2024-03-25T02:59:47;3.78;;;2.20;;
30303;SDS011;17112;48.636;10.152;2024-03-25T03:02:13;3.13;;;2.13;;
30303;SDS011;17112;48.636;10.152;2024-03-25T03:04:38;5.75;;;2.22;;
30303;SDS011;17112;48.636;10.152;2024-03-25T03:07:04;4.00;;;2.15;;
30303;SDS011;17112;48.636;10.152;2024-03-25T03:09:30;5.25;;;2.20;;
30303;SDS011;17112;48.636;10.152;2024-03-25T03:11:56;6.07;;;2.17;;
30303;SDS011;17112;48.636;10.152;2024-03-25T03:14:21;7.00;;;1.90;;
30303;SDS011;17112;48.636;10.152;2024-03-25T03:16:47;3.85;;;1.63;;
30303;SDS011;17112;48.636;10.152;2024-03-25T03:19:14;8.10;;;1.90;;
30303;SDS011;17112;48.636;10.152;2024-03-25T03:21:40;6.13;;;2.10;;
30303;SDS011;17112;48.636;10.152;2024-03-25T03:24:06;3.97;;;2.00;;
30303;SDS011;17112;48.636;10.152;2024-03-25T03:26:31;4.40;;;1.65;;
30303;SDS011;17112;48.636;10.152;2024-03-25T03:28:57;7.90;;;2.03;;
30303;SDS011;17112;48.636;10.152;2024-03-25T03:31:23;4.80;;;2.40;;
30303;SDS011;17112;48.636;10.152;2024-03-25T03:33:49;5.43;;;2.58;;
30303;SDS011;17112;48.636;10.152;2024-03-25T03:36:16;6.95;;;2.38;;
30303;SDS011;17112;48.636;10.152;2024-03-25T03:38:42;4.50;;;2.22;;
30303;SDS011;17112;48.636;10.152;2024-03-25T03:41:08;6.43;;;2.33;;
30303;SDS011;17112;48.636;10.152;2024-03-25T03:43:34;3.72;;;1.85;;
30303;SDS011;17112;48.636;10.152;2024-03-25T03:45:59;4.45;;;2.20;;
30303;SDS011;17112;48.636;10.152;2024-03-25T03:48:27;3.95;;;1.73;;
30303;SDS011;17112;48.636;10.152;2024-03-25T03:50:53;6.43;;;2.50;;
30303;SDS011;17112;48.636;10.152;2024-03-25T03:53:19;5.35;;;2.28;;
30303;SDS011;17112;48.636;10.152;2024-03-25T03:55:54;5.43;;;2.08;;
30303;SDS011;17112;48.636;10.152;2024-03-25T03:58:21;4.90;;;2.03;;
30303;SDS011;17112;48.636;10.152;2024-03-25T04:00:47;2.63;;;1.95;;
30303;SDS011;17112;48.636;10.152;2024-03-25T04:03:13;5.82;;;2.40;;
30303;SDS011;17112;48.636;10.152;2024-03-25T04:05:38;2.88;;;1.85;;
30303;SDS011;17112;48.636;10.152;2024-03-25T04:08:04;5.50;;;2.15;;
30303;SDS011;17112;48.636;10.152;2024-03-25T04:10:30;3.22;;;1.98;;
30303;SDS011;17112;48.636;10.152;2024-03-25T04:12:56;3.83;;;1.80;;
30303;SDS011;17112;48.636;10.152;2024-03-25T04:15:22;3.08;;;2.03;;
30303;SDS011;17112;48.636;10.152;2024-03-25T04:17:48;5.20;;;2.28;;
30303;SDS011;17112;48.636;10.152;2024-03-25T04:20:14;3.65;;;2.20;;
30303;SDS011;17112;48.636;10.152;2024-03-25T04:22:44;3.53;;;2.30;;
30303;SDS011;17112;48.636;10.152;2024-03-25T04:25:11;6.95;;;2.13;;
30303;SDS011;17112;48.636;10.152;2024-03-25T04:27:40;3.95;;;1.95;;
30303;SDS011;17112;48.636;10.152;2024-03-25T04:30:07;4.45;;;2.25;;
30303;SDS011;17112;48.636;10.152;2024-03-25T04:32:34;3.53;;;2.15;;
30303;SDS011;17112;48.636;10.152;2024-03-25T04:35:00;5.13;;;2.22;;
30303;SDS011;17112;48.636;10.152;2024-03-25T04:37:26;6.57;;;2.42;;
30303;SDS011;17112;48.636;10.152;2024-03-25T04:39:55;7.40;;;2.35;;
30303;SDS011;17112;48.636;10.152;2024-03-25T04:42:22;5.22;;;2.00;;
30303;SDS011;17112;48.636;10.152;2024-03-25T04:44:49;4.57;;;2.20;;
30303;SDS011;17112;48.636;10.152;2024-03-25T04:47:15;2.60;;;2.08;;
30303;SDS011;17112;48.636;10.152;2024-03-25T04:49:41;7.05;;;2.38;;
30303;SDS011;17112;48.636;10.152;2024-03-25T04:52:07;5.38;;;2.58;;
30303;SDS011;17112;48.636;10.152;2024-03-25T04:54:33;5.60;;;2.17;;
30303;SDS011;17112;48.636;10.152;2024-03-25T04:56:58;8.82;;;2.58;;
30303;SDS011;17112;48.636;10.152;2024-03-25T04:59:24;4.53;;;2.35;;
30303;SDS011;17112;48.636;10.152;2024-03-25T05:01:50;4.40;;;2.30;;
30303;SDS011;17112;48.636;10.152;2024-03-25T05:04:17;8.02;;;2.10;;
30303;SDS011;17112;48.636;10.152;2024-03-25T05:06:43;9.65;;;2.35;;
30303;SDS011;17112;48.636;10.152;2024-03-25T05:09:09;6.20;;;2.60;;
30303;SDS011;17112;48.636;10.152;2024-03-25T05:11:35;7.13;;;2.58;;
30303;SDS011;17112;48.636;10.152;2024-03-25T05:14:01;4.80;;;2.47;;
30303;SDS011;17112;48.636;10.152;2024-03-25T05:16:27;4.30;;;1.83;;
30303;SDS011;17112;48.636;10.152;2024-03-25T05:18:52;6.45;;;2.13;;
30303;SDS011;17112;48.636;10.152;2024-03-25T05:21:18;3.65;;;2.47;;
30303;SDS011;17112;48.636;10.152;2024-03-25T05:23:43;4.03;;;2.22;;
30303;SDS011;17112;48.636;10.152;2024-03-25T05:26:09;7.18;;;4.25;;
30303;SDS011;17112;48.636;10.152;2024-03-25T05:28:35;6.22;;;2.80;;
30303;SDS011;17112;48.636;10.152;2024-03-25T05:31:10;8.10;;;3.97;;
30303;SDS011;17112;48.636;10.152;2024-03-25T05:33:36;27.00;;;11.63;;
30303;SDS011;17112;48.636;10.152;2024-03-25T05:36:02;15.63;;;8.38;;
30303;SDS011;17112;48.636;10.152;2024-03-25T05:38:28;6.10;;;3.90;;
30303;SDS011;17112;48.636;10.152;2024-03-25T05:40:54;8.32;;;3.20;;
30303;SDS011;17112;48.636;10.152;2024-03-25T05:43:21;4.60;;;2.38;;
30303;SDS011;17112;48.636;10.152;2024-03-25T05:45:53;6.47;;;2.45;;
30303;SDS011;17112;48.636;10.152;2024-03-25T05:48:21;5.15;;;2.15;;
30303;SDS011;17112;48.636;10.152;2024-03-25T05:50:59;3.17;;;1.83;;
30303;SDS011;17112;48.636;10.152;2024-03-25T05:53:28;5.78;;;2.65;;
30303;SDS011;17112;48.636;10.152;2024-03-25T05:55:54;10.65;;;2.78;;
30303;SDS011;17112;48.636;10.152;2024-03-25T05:58:20;6.03;;;2.25;;
30303;SDS011;17112;48.636;10.152;2024-03-25T06:00:49;5.40;;;2.28;;
30303;SDS011;17112;48.636;10.152;2024-03-25T06:03:15;5.60;;;2.15;;
30303;SDS011;17112;48.636;10.152;2024-03-25T06:05:43;6.53;;;2.50;;
30303;SDS011;17112;48.636;10.152;2024-03-25T06:08:09;7.72;;;2.10;;
30303;SDS011;17112;48.636;10.152;2024-03-25T06:10:43;6.80;;;2.58;;
30303;SDS011;17112;48.636;10.152;2024-03-25T06:13:09;4.88;;;1.98;;
30303;SDS011;17112;48.636;10.152;2024-03-25T06:15:35;7.68;;;2.22;;
30303;SDS011;17112;48.636;10.152;2024-03-25T06:18:01;7.45;;;2.20;;
30303;SDS011;17112;48.636;10.152;2024-03-25T06:20:26;9.38;;;2.47;;
30303;SDS011;17112;48.636;10.152;2024-03-25T06:22:52;4.63;;;2.30;;
30303;SDS011;17112;48.636;10.152;2024-03-25T06:25:18;7.22;;;2.28;;
30303;SDS011;17112;48.636;10.152;2024-03-25T06:27:43;8.23;;;2.22;;
30303;SDS011;17112;48.636;10.152;2024-03-25T06:30:09;9.63;;;2.40;;
30303;SDS011;17112;48.636;10.152;2024-03-25T06:32:54;6.25;;;2.70;;
30303;SDS011;17112;48.636;10.152;2024-03-25T06:35:38;6.28;;;2.72;;
30303;SDS011;17112;48.636;10.152;2024-03-25T06:38:04;10.10;;;2.50;;
30303;SDS011;17112;48.636;10.152;2024-03-25T06:40:30;6.18;;;2.47;;
30303;SDS011;17112;48.636;10.152;2024-03-25T06:42:56;10.05;;;2.70;;
30303;SDS011;17112;48.636;10.152;2024-03-25T06:45:23;6.20;;;2.67;;
30303;SDS011;17112;48.636;10.152;2024-03-25T06:47:48;6.15;;;2.50;;
30303;SDS011;17112;48.636;10.152;2024-03-25T06:50:15;6.03;;;2.53;;
30303;SDS011;17112;48.636;10.152;2024-03-25T06:52:40;3.72;;;2.28;;
30303;SDS011;17112;48.636;10.152;2024-03-25T06:55:06;9.07;;;2.60;;
30303;SDS011;17112;48.636;10.152;2024-03-25T06:57:33;6.60;;;2.65;;
30303;SDS011;17112;48.636;10.152;2024-03-25T06:59:59;6.45;;;2.40;;
30303;SDS011;17112;48.636;10.152;2024-03-25T07:02:24;5.25;;;2.20;;
30303;SDS011;17112;48.636;10.152;2024-03-25T07:04:50;3.92;;;2.20;;
30303;SDS011;17112;48.636;10.152;2024-03-25T07:07:15;7.07;;;2.40;;
30303;SDS011;17112;48.636;10.152;2024-03-25T07:09:41;4.05;;;2.28;;
30303;SDS011;17112;48.636;10.152;2024-03-25T07:12:07;6.72;;;2.40;;
30303;SDS011;17112;48.636;10.152;2024-03-25T07:14:33;9.52;;;3.00;;
30303;SDS011;17112;48.636;10.152;2024-03-25T07:16:59;7.47;;;2.97;;
30303;SDS011;17112;48.636;10.152;2024-03-25T07:19:25;6.25;;;2.90;;
30303;SDS011;17112;48.636;10.152;2024-03-25T07:21:50;6.05;;;2.45;;
30303;SDS011;17112;48.636;10.152;2024-03-25T07:24:16;5.43;;;2.70;;
30303;SDS011;17112;48.636;10.152;2024-03-25T07:26:42;4.97;;;2.17;;
30303;SDS011;17112;48.636;10.152;2024-03-25T07:29:07;5.30;;;2.72;;
30303;SDS011;17112;48.636;10.152;2024-03-25T07:31:33;7.90;;;2.63;;
30303;SDS011;17112;48.636;10.152;2024-03-25T07:33:59;4.90;;;2.65;;
30303;SDS011;17112;48.636;10.152;2024-03-25T07:36:25;8.27;;;2.75;;
30303;SDS011;17112;48.636;10.152;2024-03-25T07:38:51;6.90;;;2.90;;
30303;SDS011;17112;48.636;10.152;2024-03-25T07:41:17;9.88;;;3.53;;
30303;SDS011;17112;48.636;10.152;2024-03-25T07:43:43;6.95;;;3.30;;
30303;SDS011;17112;48.636;10.152;2024-03-25T07:46:09;9.80;;;2.67;;
30303;SDS011;17112;48.636;10.152;2024-03-25T07:48:35;6.55;;;2.92;;
30303;SDS011;17112;48.636;10.152;2024-03-25T07:51:01;6.13;;;3.13;;
30303;SDS011;17112;48.636;10.152;2024-03-25T07:53:27;7.03;;;3.03;;
30303;SDS011;17112;48.636;10.152;2024-03-25T07:55:52;5.82;;;3.05;;
30303;SDS011;17112;48.636;10.152;2024-03-25T07:58:18;6.38;;;3.00;;
30303;SDS011;17112;48.636;10.152;2024-03-25T08:00:44;8.75;;;2.75;;
30303;SDS011;17112;48.636;10.152;2024-03-25T08:03:09;6.55;;;2.70;;
30303;SDS011;17112;48.636;10.152;2024-03-25T08:05:35;7.30;;;2.78;;
30303;SDS011;17112;48.636;10.152;2024-03-25T08:08:01;9.55;;;2.80;;
30303;SDS011;17112;48.636;10.152;2024-03-25T08:10:26;5.80;;;2.67;;
30303;SDS011;17112;48.636;10.152;2024-03-25T08:12:53;14.38;;;5.47;;
30303;SDS011;17112;48.636;10.152;2024-03-25T08:15:19;7.25;;;3.15;;
30303;SDS011;17112;48.636;10.152;2024-03-25T08:17:44;7.45;;;2.80;;
30303;SDS011;17112;48.636;10.152;2024-03-25T08:20:10;6.07;;;2.45;;
30303;SDS011;17112;48.636;10.152;2024-03-25T08:22:37;5.80;;;2.97;;
30303;SDS011;17112;48.636;10.152;2024-03-25T08:25:03;5.80;;;2.10;;
30303;SDS011;17112;48.636;10.152;2024-03-25T08:27:29;5.85;;;2.33;;
30303;SDS011;17112;48.636;10.152;2024-03-25T08:29:55;6.93;;;2.45;;
30303;SDS011;17112;48.636;10.152;2024-03-25T08:32:21;5.38;;;2.10;;
30303;SDS011;17112;48.636;10.152;2024-03-25T08:34:47;5.97;;;2.40;;
30303;SDS011;17112;48.636;10.152;2024-03-25T08:37:12;6.75;;;2.35;;
30303;SDS011;17112;48.636;10.152;2024-03-25T08:39:38;6.40;;;2.28;;
30303;SDS011;17112;48.636;10.152;2024-03-25T08:42:04;5.50;;;2.08;;
30303;SDS011;17112;48.636;10.152;2024-03-25T08:44:29;7.20;;;2.72;;
30303;SDS011;17112;48.636;10.152;2024-03-25T08:46:55;5.40;;;2.42;;
30303;SDS011;17112;48.636;10.152;2024-03-25T08:49:21;6.05;;;2.42;;
30303;SDS011;17112;48.636;10.152;2024-03-25T08:51:46;6.22;;;2.58;;
30303;SDS011;17112;48.636;10.152;2024-03-25T08:54:12;4.22;;;2.20;;
30303;SDS011;17112;48.636;10.152;2024-03-25T08:56:38;7.85;;;2.40;;
30303;SDS011;17112;48.636;10.152;2024-03-25T08:59:04;4.57;;;2.30;;
30303;SDS011;17112;48.636;10.152;2024-03-25T09:01:30;4.35;;;2.25;;
30303;SDS011;17112;48.636;10.152;2024-03-25T09:03:55;9.63;;;2.78;;
30303;SDS011;17112;48.636;10.152;2024-03-25T09:06:21;6.00;;;2.65;;
30303;SDS011;17112;48.636;10.152;2024-03-25T09:08:48;5.90;;;2.50;;
30303;SDS011;17112;48.636;10.152;2024-03-25T09:11:32;8.18;;;2.33;;
30303;SDS011;17112;48.636;10.152;2024-03-25T09:13:57;7.55;;;2.55;;
30303;SDS011;17112;48.636;10.152;2024-03-25T09:16:23;8.55;;;2.97;;
30303;SDS011;17112;48.636;10.152;2024-03-25T09:18:49;3.65;;;2.00;;
30303;SDS011;17112;48.636;10.152;2024-03-25T09:21:14;8.57;;;2.40;;
30303;SDS011;17112;48.636;10.152;2024-03-25T09:23:40;6.07;;;2.10;;
30303;SDS011;17112;48.636;10.152;2024-03-25T09:26:06;7.72;;;2.80;;
30303;SDS011;17112;48.636;10.152;2024-03-25T09:28:31;5.03;;;3.10;;
30303;SDS011;17112;48.636;10.152;2024-03-25T09:30:57;5.22;;;2.60;;
30303;SDS011;17112;48.636;10.152;2024-03-25T09:33:23;6.35;;;2.35;;
30303;SDS011;17112;48.636;10.152;2024-03-25T09:35:49;4.93;;;2.08;;
30303;SDS011;17112;48.636;10.152;2024-03-25T09:38:14;4.40;;;2.05;;
30303;SDS011;17112;48.636;10.152;2024-03-25T09:40:40;6.55;;;2.03;;
30303;SDS011;17112;48.636;10.152;2024-03-25T09:43:12;7.28;;;2.25;;
30303;SDS011;17112;48.636;10.152;2024-03-25T09:45:42;7.95;;;2.22;;
30303;SDS011;17112;48.636;10.152;2024-03-25T09:48:13;9.05;;;2.53;;
30303;SDS011;17112;48.636;10.152;2024-03-25T09:50:46;5.00;;;2.08;;
30303;SDS011;17112;48.636;10.152;2024-03-25T09:53:14;5.88;;;2.13;;
30303;SDS011;17112;48.636;10.152;2024-03-25T09:55:39;3.85;;;1.80;;
30303;SDS011;17112;48.636;10.152;2024-03-25T09:58:05;5.25;;;2.15;;
30303;SDS011;17112;48.636;10.152;2024-03-25T10:00:31;5.32;;;2.20;;
30303;SDS011;17112;48.636;10.152;2024-03-25T10:02:57;8.35;;;3.28;;
30303;SDS011;17112;48.636;10.152;2024-03-25T10:05:23;7.13;;;2.78;;
30303;SDS011;17112;48.636;10.152;2024-03-25T10:07:49;4.95;;;2.42;;
30303;SDS011;17112;48.636;10.152;2024-03-25T10:10:18;4.55;;;2.30;;
30303;SDS011;17112;48.636;10.152;2024-03-25T10:12:45;4.30;;;1.98;;
30303;SDS011;17112;48.636;10.152;2024-03-25T10:15:20;6.63;;;2.42;;
30303;SDS011;17112;48.636;10.152;2024-03-25T10:17:48;4.22;;;2.10;;
30303;SDS011;17112;48.636;10.152;2024-03-25T10:20:15;4.75;;;1.90;;
30303;SDS011;17112;48.636;10.152;2024-03-25T10:22:44;5.03;;;2.45;;
30303;SDS011;17112;48.636;10.152;2024-03-25T10:25:25;4.40;;;2.30;;
30303;SDS011;17112;48.636;10.152;2024-03-25T10:27:55;5.10;;;1.80;;
30303;SDS011;17112;48.636;10.152;2024-03-25T10:30:29;5.18;;;2.05;;
30303;SDS011;17112;48.636;10.152;2024-03-25T10:32:58;4.88;;;2.03;;
30303;SDS011;17112;48.636;10.152;2024-03-25T10:35:25;6.03;;;1.98;;
30303;SDS011;17112;48.636;10.152;2024-03-25T10:37:53;8.27;;;2.30;;
30303;SDS011;17112;48.636;10.152;2024-03-25T10:40:29;7.20;;;2.33;;
30303;SDS011;17112;48.636;10.152;2024-03-25T10:43:05;5.32;;;2.58;;
30303;SDS011;17112;48.636;10.152;2024-03-25T10:45:43;6.13;;;2.20;;
30303;SDS011;17112;48.636;10.152;2024-03-25T10:48:17;3.63;;;1.70;;
30303;SDS011;17112;48.636;10.152;2024-03-25T10:53:11;3.63;;;1.77;;
30303;SDS011;17112;48.636;10.152;2024-03-25T10:55:39;3.83;;;1.85;;
30303;SDS011;17112;48.636;10.152;2024-03-25T10:58:05;4.63;;;2.28;;
30303;SDS011;17112;48.636;10.152;2024-03-25T11:00:33;5.07;;;2.10;;
30303;SDS011;17112;48.636;10.152;2024-03-25T11:03:00;5.35;;;1.88;;
30303;SDS011;17112;48.636;10.152;2024-03-25T11:05:26;6.13;;;2.17;;
30303;SDS011;17112;48.636;10.152;2024-03-25T11:07:52;5.38;;;2.30;;
30303;SDS011;17112;48.636;10.152;2024-03-25T11:10:18;7.10;;;2.28;;
30303;SDS011;17112;48.636;10.152;2024-03-25T11:12:44;3.63;;;1.92;;
30303;SDS011;17112;48.636;10.152;2024-03-25T11:15:10;6.38;;;2.03;;
30303;SDS011;17112;48.636;10.152;2024-03-25T11:17:36;4.68;;;1.70;;
30303;SDS011;17112;48.636;10.152;2024-03-25T11:20:14;5.88;;;2.20;;
30303;SDS011;17112;48.636;10.152;2024-03-25T11:22:50;4.88;;;2.47;;
30303;SDS011;17112;48.636;10.152;2024-03-25T11:25:16;5.10;;;1.75;;
30303;SDS011;17112;48.636;10.152;2024-03-25T11:27:43;4.97;;;1.83;;
30303;SDS011;17112;48.636;10.152;2024-03-25T11:30:13;4.90;;;1.90;;
30303;SDS011;17112;48.636;10.152;2024-03-25T11:32:43;4.53;;;2.05;;
30303;SDS011;17112;48.636;10.152;2024-03-25T11:35:16;3.88;;;2.10;;
30303;SDS011;17112;48.636;10.152;2024-03-25T11:37:42;4.40;;;2.47;;
30303;SDS011;17112;48.636;10.152;2024-03-25T11:40:09;4.70;;;2.45;;
30303;SDS011;17112;48.636;10.152;2024-03-25T11:42:38;3.50;;;2.03;;
30303;SDS011;17112;48.636;10.152;2024-03-25T11:45:07;6.45;;;2.30;;
30303;SDS011;17112;48.636;10.152;2024-03-25T11:47:46;3.28;;;2.17;;
30303;SDS011;17112;48.636;10.152;2024-03-25T11:50:14;3.88;;;2.17;;
30303;SDS011;17112;48.636;10.152;2024-03-25T11:52:41;13.82;;;6.95;;
30303;SDS011;17112;48.636;10.152;2024-03-25T11:55:07;7.68;;;3.38;;
30303;SDS011;17112;48.636;10.152;2024-03-25T11:57:33;3.70;;;2.10;;
30303;SDS011;17112;48.636;10.152;2024-03-25T12:00:04;2.65;;;1.83;;
30303;SDS011;17112;48.636;10.152;2024-03-25T12:02:31;4.28;;;2.50;;
30303;SDS011;17112;48.636;10.152;2024-03-25T12:04:57;4.78;;;2.50;;
30303;SDS011;17112;48.636;10.152;2024-03-25T12:07:23;5.90;;;2.55;;
30303;SDS011;17112;48.636;10.152;2024-03-25T12:09:48;5.25;;;2.33;;
30303;SDS011;17112;48.636;10.152;2024-03-25T12:12:32;4.13;;;2.67;;
30303;SDS011;17112;48.636;10.152;2024-03-25T12:15:00;4.47;;;2.67;;
30303;SDS011;17112;48.636;10.152;2024-03-25T12:17:27;4.07;;;2.30;;
30303;SDS011;17112;48.636;10.152;2024-03-25T12:20:04;5.20;;;2.45;;
30303;SDS011;17112;48.636;10.152;2024-03-25T12:22:31;6.28;;;2.30;;
30303;SDS011;17112;48.636;10.152;2024-03-25T12:25:00;5.40;;;1.92;;
30303;SDS011;17112;48.636;10.152;2024-03-25T12:27:28;3.90;;;2.10;;
30303;SDS011;17112;48.636;10.152;2024-03-25T12:30:06;2.42;;;1.80;;
30303;SDS011;17112;48.636;10.152;2024-03-25T12:35:06;4.80;;;2.00;;
30303;SDS011;17112;48.636;10.152;2024-03-25T12:37:33;3.15;;;1.73;;
30303;SDS011;17112;48.636;10.152;2024-03-25T12:39:59;4.25;;;1.83;;
30303;SDS011;17112;48.636;10.152;2024-03-25T12:42:25;5.03;;;1.80;;
30303;SDS011;17112;48.636;10.152;2024-03-25T12:44:54;3.28;;;2.20;;
30303;SDS011;17112;48.636;10.152;2024-03-25T12:47:21;3.75;;;1.90;;
30303;SDS011;17112;48.636;10.152;2024-03-25T12:49:47;2.90;;;1.50;;
30303;SDS011;17112;48.636;10.152;2024-03-25T12:52:12;2.47;;;1.42;;
30303;SDS011;17112;48.636;10.152;2024-03-25T12:54:38;4.13;;;1.60;;
30303;SDS011;17112;48.636;10.152;2024-03-25T12:57:06;4.57;;;1.70;;
30303;SDS011;17112;48.636;10.152;2024-03-25T12:59:32;3.15;;;1.55;;
30303;SDS011;17112;48.636;10.152;2024-03-25T13:01:58;2.90;;;1.42;;
30303;SDS011;17112;48.636;10.152;2024-03-25T13:04:24;6.05;;;1.70;;
30303;SDS011;17112;48.636;10.152;2024-03-25T13:06:52;3.25;;;1.80;;
30303;SDS011;17112;48.636;10.152;2024-03-25T13:09:17;6.07;;;2.00;;
30303;SDS011;17112;48.636;10.152;2024-03-25T13:11:43;3.08;;;1.80;;
30303;SDS011;17112;48.636;10.152;2024-03-25T13:14:11;3.72;;;1.60;;
30303;SDS011;17112;48.636;10.152;2024-03-25T13:16:37;2.38;;;1.30;;
30303;SDS011;17112;48.636;10.152;2024-03-25T13:19:03;2.45;;;1.30;;
30303;SDS011;17112;48.636;10.152;2024-03-25T13:21:29;1.73;;;1.20;;
30303;SDS011;17112;48.636;10.152;2024-03-25T13:23:55;4.32;;;1.60;;
30303;SDS011;17112;48.636;10.152;2024-03-25T13:26:21;1.85;;;1.48;;
30303;SDS011;17112;48.636;10.152;2024-03-25T13:28:47;1.92;;;1.50;;
30303;SDS011;17112;48.636;10.152;2024-03-25T13:31:12;3.55;;;1.40;;
30303;SDS011;17112;48.636;10.152;2024-03-25T13:33:45;3.38;;;1.35;;
30303;SDS011;17112;48.636;10.152;2024-03-25T13:36:11;1.52;;;1.33;;
30303;SDS011;17112;48.636;10.152;2024-03-25T13:38:36;3.25;;;1.35;;
30303;SDS011;17112;48.636;10.152;2024-03-25T13:41:02;2.95;;;1.42;;
30303;SDS011;17112;48.636;10.152;2024-03-25T13:43:28;2.92;;;1.40;;
30303;SDS011;17112;48.636;10.152;2024-03-25T13:45:54;2.05;;;1.33;;
30303;SDS011;17112;48.636;10.152;2024-03-25T13:48:20;3.22;;;1.58;;
30303;SDS011;17112;48.636;10.152;2024-03-25T13:50:46;2.92;;;1.58;;
30303;SDS011;17112;48.636;10.152;2024-03-25T13:53:13;2.08;;;1.42;;
30303;SDS011;17112;48.636;10.152;2024-03-25T13:55:39;2.42;;;1.38;;
30303;SDS011;17112;48.636;10.152;2024-03-25T13:58:05;7.65;;;1.55;;
30303;SDS011;17112;48.636;10.152;2024-03-25T14:00:31;4.38;;;1.50;;
30303;SDS011;17112;48.636;10.152;2024-03-25T14:02:58;2.55;;;1.40;;
30303;SDS011;17112;48.636;10.152;2024-03-25T14:05:25;2.28;;;1.42;;
30303;SDS011;17112;48.636;10.152;2024-03-25T14:07:51;3.28;;;1.70;;
30303;SDS011;17112;48.636;10.152;2024-03-25T14:10:17;4.80;;;1.50;;
30303;SDS011;17112;48.636;10.152;2024-03-25T14:12:42;3.13;;;0.90;;
30303;SDS011;17112;48.636;10.152;2024-03-25T14:15:08;4.47;;;1.40;;
30303;SDS011;17112;48.636;10.152;2024-03-25T14:17:34;4.82;;;1.60;;
30303;SDS011;17112;48.636;10.152;2024-03-25T14:20:00;2.05;;;1.30;;
30303;SDS011;17112;48.636;10.152;2024-03-25T14:22:26;5.30;;;1.10;;
30303;SDS011;17112;48.636;10.152;2024-03-25T14:24:52;1.55;;;0.90;;
30303;SDS011;17112;48.636;10.152;2024-03-25T14:27:22;1.67;;;1.02;;
30303;SDS011;17112;48.636;10.152;2024-03-25T14:29:49;1.85;;;1.10;;
30303;SDS011;17112;48.636;10.152;2024-03-25T14:32:14;3.00;;;1.20;;
30303;SDS011;17112;48.636;10.152;2024-03-25T14:34:40;2.05;;;1.10;;
30303;SDS011;17112;48.636;10.152;2024-03-25T14:37:06;2.45;;;1.20;;